createdAt,value
2019-04-14T00:00:05.487Z,9.97
2019-04-14T00:00:40.580Z,10.07
2019-04-14T00:01:17.505Z,10.47
2019-04-14T00:02:03.194Z,10.30
2019-04-14T00:02:36.335Z,10.67
2019-04-14T00:03:10.648Z,10.40
2019-04-14T00:03:47.916Z,11.23
2019-04-14T00:04:24.773Z,11.13
2019-04-14T00:04:57.213Z,11.43
2019-04-14T00:05:31.405Z,10.73
2019-04-14T00:06:03.303Z,11.70
2019-04-14T00:06:35.279Z,10.77
2019-04-14T00:07:06.485Z,9.87
2019-04-14T00:07:38.477Z,10.70
2019-04-14T00:08:10.957Z,11.77
2019-04-14T00:08:43.617Z,11.67
2019-04-14T00:09:16.229Z,11.33
2019-04-14T00:09:47.609Z,11.97
2019-04-14T00:10:20.275Z,11.87
2019-04-14T00:10:52.856Z,10.73
2019-04-14T00:11:24.161Z,12.77
2019-04-14T00:11:55.393Z,13.07
2019-04-14T00:12:27.317Z,12.77
2019-04-14T00:12:58.652Z,13.20
2019-04-14T00:13:30.648Z,12.77
2019-04-14T00:14:03.105Z,11.90
2019-04-14T00:14:36.301Z,12.43
2019-04-14T00:15:23.408Z,12.23
2019-04-14T00:15:47.048Z,11.10
2019-04-14T00:16:16.372Z,9.70
2019-04-14T00:16:48.830Z,9.77
2019-04-14T00:17:21.526Z,9.73
2019-04-14T00:17:52.855Z,9.47
2019-04-14T00:18:25.048Z,10.60
2019-04-14T00:18:56.292Z,10.37
2019-04-14T00:19:28.372Z,10.30
2019-04-14T00:19:59.555Z,11.43
2019-04-14T00:20:31.532Z,10.67
2019-04-14T00:21:02.756Z,11.20
2019-04-14T00:21:34.632Z,10.83
2019-04-14T00:22:05.846Z,11.13
2019-04-14T00:22:38.117Z,11.43
2019-04-14T00:23:09.346Z,11.30
2019-04-14T00:23:41.241Z,11.37
2019-04-14T00:24:12.465Z,11.63
2019-04-14T00:24:44.587Z,12.13
2019-04-14T00:25:15.847Z,11.27
2019-04-14T00:25:47.675Z,11.23
2019-04-14T00:26:24.797Z,11.07
2019-04-14T00:26:57.342Z,10.73
2019-04-14T00:27:28.754Z,10.90
2019-04-14T00:28:00.772Z,10.00
2019-04-14T00:28:32.011Z,10.43
2019-04-14T00:29:04.473Z,10.40
2019-04-14T00:29:37.054Z,10.17
2019-04-14T00:30:11.702Z,9.87
2019-04-14T00:30:43.319Z,9.47
2019-04-14T00:31:15.199Z,9.83
2019-04-14T00:31:47.462Z,9.93
2019-04-14T00:32:20.392Z,9.80
2019-04-14T00:32:53.734Z,9.87
2019-04-14T00:33:28.033Z,9.90
2019-04-14T00:34:01.291Z,10.37
2019-04-14T00:34:35.308Z,10.60
2019-04-14T00:35:08.603Z,9.90
2019-04-14T00:35:40.868Z,9.87
2019-04-14T00:36:17.591Z,10.20
2019-04-14T00:37:05.627Z,10.83
2019-04-14T00:37:40.117Z,10.33
2019-04-14T00:38:19.530Z,10.50
2019-04-14T00:38:52.354Z,11.10
2019-04-14T00:39:25.425Z,10.73
2019-04-14T00:39:59.754Z,11.07
2019-04-14T00:40:49.748Z,11.43
2019-04-14T00:41:37.101Z,11.30
2019-04-14T00:42:19.123Z,11.90
2019-04-14T00:42:53.805Z,12.10
2019-04-14T00:43:28.781Z,12.63
2019-04-14T00:44:01.285Z,12.60
2019-04-14T00:44:38.702Z,12.73
2019-04-14T00:45:15.477Z,12.20
2019-04-14T00:45:53.084Z,12.83
2019-04-14T00:46:23.666Z,11.43
2019-04-14T00:46:56.762Z,10.97
2019-04-14T00:47:31.044Z,10.50
2019-04-14T00:48:10.767Z,10.37
2019-04-14T00:48:38.660Z,8.90
2019-04-14T00:49:11.439Z,8.60
2019-04-14T00:49:42.655Z,8.57
2019-04-14T00:50:14.675Z,8.57
2019-04-14T00:50:45.978Z,8.03
2019-04-14T00:51:17.744Z,9.00
2019-04-14T00:51:48.968Z,8.70
2019-04-14T00:52:21.180Z,9.70
2019-04-14T00:52:52.426Z,9.53
2019-04-14T00:53:23.658Z,9.53
2019-04-14T00:53:55.724Z,9.70
2019-04-14T00:54:28.197Z,9.07
2019-04-14T00:54:59.433Z,9.70
2019-04-14T00:55:31.771Z,10.73
2019-04-14T00:56:03.961Z,9.73
2019-04-14T00:56:35.399Z,10.13
2019-04-14T00:57:07.318Z,9.83
2019-04-14T00:57:39.756Z,9.77
2019-04-14T00:58:11.041Z,9.47
2019-04-14T00:58:43.272Z,10.23
2019-04-14T00:59:15.650Z,10.03
2019-04-14T00:59:46.992Z,10.20
2019-04-14T01:00:19.273Z,9.67
2019-04-14T01:00:51.760Z,10.17
2019-04-14T01:01:24.286Z,9.63
2019-04-14T01:01:56.754Z,10.10
2019-04-14T01:02:28.194Z,9.37
2019-04-14T01:03:00.396Z,9.93
2019-04-14T01:03:33.040Z,9.03
2019-04-14T01:04:05.530Z,8.93
2019-04-14T01:04:36.827Z,9.20
2019-04-14T01:05:08.958Z,9.43
2019-04-14T01:05:41.428Z,8.33
2019-04-14T01:06:12.854Z,9.17
2019-04-14T01:06:44.853Z,8.33
2019-04-14T01:07:17.370Z,8.60
2019-04-14T01:07:48.507Z,8.47
2019-04-14T01:08:20.594Z,9.77
2019-04-14T01:08:53.228Z,9.37
2019-04-14T01:09:24.636Z,8.53
2019-04-14T01:09:55.828Z,9.07
2019-04-14T01:10:27.836Z,8.00
2019-04-14T01:10:59.105Z,8.70
2019-04-14T01:11:31.397Z,9.53
2019-04-14T01:12:03.809Z,8.63
2019-04-14T01:12:35.118Z,8.97
2019-04-14T01:13:09.571Z,9.17
2019-04-14T01:13:39.741Z,8.93
2019-04-14T01:14:11.173Z,8.87
2019-04-14T01:14:43.133Z,9.17
2019-04-14T01:15:15.727Z,8.93
2019-04-14T01:15:54.865Z,9.70
2019-04-14T01:16:23.305Z,10.60
2019-04-14T01:16:53.853Z,9.37
2019-04-14T01:17:26.499Z,8.73
2019-04-14T01:17:57.873Z,8.87
2019-04-14T01:18:29.839Z,9.07
2019-04-14T01:19:01.201Z,8.60
2019-04-14T01:19:33.116Z,8.83
2019-04-14T01:20:05.623Z,8.83
2019-04-14T01:20:36.911Z,8.37
2019-04-14T01:21:08.945Z,9.30
2019-04-14T01:21:41.315Z,8.53
2019-04-14T01:22:12.646Z,8.30
2019-04-14T01:22:44.543Z,8.57
2019-04-14T01:23:17.085Z,8.47
2019-04-14T01:23:48.511Z,7.87
2019-04-14T01:24:20.697Z,8.70
2019-04-14T01:24:53.185Z,8.70
2019-04-14T01:25:24.587Z,9.00
2019-04-14T01:25:56.415Z,8.90
2019-04-14T01:26:28.819Z,9.13
2019-04-14T01:27:00.172Z,9.30
2019-04-14T01:27:31.995Z,8.77
2019-04-14T01:28:04.576Z,9.00
2019-04-14T01:28:35.946Z,8.90
2019-04-14T01:29:08.202Z,9.50
2019-04-14T01:29:40.473Z,9.97
2019-04-14T01:30:11.837Z,10.07
2019-04-14T01:30:43.709Z,10.13
2019-04-14T01:31:16.138Z,9.50
2019-04-14T01:31:47.489Z,9.67
2019-04-14T01:32:19.686Z,9.23
2019-04-14T01:32:52.121Z,10.60
2019-04-14T01:33:23.544Z,10.60
2019-04-14T01:33:55.554Z,10.23
2019-04-14T01:34:28.034Z,9.63
2019-04-14T01:34:59.500Z,9.90
2019-04-14T01:35:31.456Z,10.53
2019-04-14T01:36:03.849Z,9.60
2019-04-14T01:36:35.256Z,9.30
2019-04-14T01:37:07.295Z,9.43
2019-04-14T01:37:39.670Z,9.47
2019-04-14T01:38:10.944Z,9.10
2019-04-14T01:38:42.829Z,8.60
2019-04-14T01:39:15.372Z,9.03
2019-04-14T01:39:46.758Z,9.37
2019-04-14T01:40:18.497Z,9.00
2019-04-14T01:40:50.912Z,8.77
2019-04-14T01:41:22.156Z,9.20
2019-04-14T01:41:54.394Z,10.13
2019-04-14T01:42:26.689Z,9.07
2019-04-14T01:42:59.425Z,9.27
2019-04-14T01:43:32.023Z,8.63
2019-04-14T01:44:04.563Z,8.40
2019-04-14T01:44:35.932Z,9.00
2019-04-14T01:45:10.022Z,9.20
2019-04-14T01:45:42.533Z,9.27
2019-04-14T01:46:18.637Z,9.17
2019-04-14T01:46:47.793Z,9.40
2019-04-14T01:47:19.079Z,9.40
2019-04-14T01:47:51.101Z,9.37
2019-04-14T01:48:23.501Z,9.73
2019-04-14T01:48:54.973Z,9.80
2019-04-14T01:49:26.872Z,9.73
2019-04-14T01:49:59.390Z,10.13
2019-04-14T01:50:32.693Z,10.20
2019-04-14T01:51:07.069Z,10.13
2019-04-14T01:51:55.289Z,10.00
2019-04-14T01:52:45.754Z,9.27
2019-04-14T01:53:18.967Z,10.07
2019-04-14T01:53:53.162Z,10.40
2019-04-14T01:54:25.676Z,10.23
2019-04-14T01:55:17.747Z,9.93
2019-04-14T01:55:57.000Z,9.90
2019-04-14T01:56:47.144Z,11.10
2019-04-14T01:57:37.069Z,10.87
2019-04-14T01:58:10.324Z,10.33
2019-04-14T01:58:53.398Z,9.73
2019-04-14T01:59:24.718Z,9.50
2019-04-14T01:59:56.771Z,10.30
2019-04-14T02:00:29.118Z,10.30
2019-04-14T02:01:11.098Z,9.30
2019-04-14T02:01:44.163Z,9.07
2019-04-14T02:02:27.017Z,10.87
2019-04-14T02:02:58.340Z,10.40
2019-04-14T02:03:30.240Z,9.93
2019-04-14T02:04:02.816Z,10.57
2019-04-14T02:04:34.183Z,10.57
2019-04-14T02:05:06.040Z,10.07
2019-04-14T02:05:38.547Z,9.77
2019-04-14T02:06:09.824Z,10.57
2019-04-14T02:06:41.903Z,10.33
2019-04-14T02:07:14.378Z,10.67
2019-04-14T02:07:45.747Z,10.30
2019-04-14T02:08:17.749Z,10.23
2019-04-14T02:08:50.132Z,10.70
2019-04-14T02:09:22.945Z,9.70
2019-04-14T02:09:55.264Z,9.90
2019-04-14T02:10:27.962Z,9.43
2019-04-14T02:10:59.333Z,9.37
2019-04-14T02:11:31.388Z,10.00
2019-04-14T02:12:03.757Z,10.40
2019-04-14T02:12:35.129Z,10.00
2019-04-14T02:13:07.625Z,9.50
2019-04-14T02:13:39.651Z,9.37
2019-04-14T02:14:12.288Z,10.50
2019-04-14T02:14:43.744Z,9.83
2019-04-14T02:15:15.471Z,10.30
2019-04-14T02:15:46.693Z,8.67
2019-04-14T02:16:25.799Z,10.43
2019-04-14T02:16:56.046Z,9.37
2019-04-14T02:17:24.278Z,9.90
2019-04-14T02:17:56.605Z,9.60
2019-04-14T02:18:27.982Z,10.03
2019-04-14T02:19:00.221Z,10.77
2019-04-14T02:19:32.679Z,10.47
2019-04-14T02:20:05.961Z,10.23
2019-04-14T02:20:38.187Z,11.23
2019-04-14T02:21:10.632Z,10.70
2019-04-14T02:21:43.338Z,10.37
2019-04-14T02:22:15.890Z,10.40
2019-04-14T02:22:48.379Z,11.00
2019-04-14T02:23:19.756Z,10.90
2019-04-14T02:23:51.878Z,11.17
2019-04-14T02:24:24.207Z,10.83
2019-04-14T02:24:55.420Z,10.80
2019-04-14T02:25:27.483Z,12.67
2019-04-14T02:25:59.982Z,12.37
2019-04-14T02:26:31.318Z,13.83
2019-04-14T02:27:03.490Z,13.07
2019-04-14T02:27:35.973Z,13.17
2019-04-14T02:28:07.408Z,12.87
2019-04-14T02:28:39.681Z,12.57
2019-04-14T02:29:12.189Z,12.93
2019-04-14T02:29:43.526Z,10.87
2019-04-14T02:30:20.171Z,12.00
2019-04-14T02:30:56.706Z,12.37
2019-04-14T02:31:35.667Z,11.10
2019-04-14T02:32:25.512Z,11.43
2019-04-14T02:33:00.481Z,11.47
2019-04-14T02:33:37.775Z,10.43
2019-04-14T02:34:17.447Z,10.87
2019-04-14T02:34:45.479Z,10.43
2019-04-14T02:36:45.996Z,10.47
2019-04-14T02:37:19.667Z,9.77
2019-04-14T02:37:54.450Z,10.00
2019-04-14T02:38:33.959Z,10.43
2019-04-14T02:39:06.079Z,9.77
2019-04-14T02:39:38.992Z,9.93
2019-04-14T02:41:57.018Z,10.43
2019-04-14T02:42:31.192Z,11.17
2019-04-14T02:43:09.797Z,11.80
2019-04-14T02:43:29.915Z,11.73
2019-04-14T02:44:16.117Z,11.37
2019-04-14T02:44:38.012Z,11.80
2019-04-14T02:45:10.480Z,11.00
2019-04-14T02:46:49.740Z,12.30
2019-04-14T02:47:36.860Z,11.47
2019-04-14T02:49:39.011Z,11.33
2019-04-14T02:50:18.079Z,12.37
2019-04-14T02:50:30.633Z,12.90
2019-04-14T02:51:12.522Z,12.37
2019-04-14T02:51:41.504Z,11.77
2019-04-14T02:52:19.658Z,12.03
2019-04-14T02:54:37.043Z,11.20
2019-04-14T02:54:59.803Z,12.10
2019-04-14T02:55:37.990Z,11.47
2019-04-14T02:56:15.846Z,11.47
2019-04-14T02:56:43.393Z,12.23
2019-04-14T02:57:17.371Z,12.30
2019-04-14T02:57:44.800Z,12.63
2019-04-14T02:58:30.485Z,11.67
2019-04-14T02:58:52.370Z,11.37
2019-04-14T02:59:24.716Z,11.63
2019-04-14T02:59:58.751Z,11.93
2019-04-14T03:01:09.533Z,11.67
2019-04-14T03:01:45.200Z,10.73
2019-04-14T03:02:42.659Z,11.50
2019-04-14T03:03:23.461Z,11.40
2019-04-14T03:04:40.651Z,12.43
2019-04-14T03:05:00.035Z,13.13
2019-04-14T03:05:26.991Z,13.63
2019-04-14T03:06:33.541Z,13.60
2019-04-14T03:07:19.029Z,13.27
2019-04-14T03:07:46.979Z,14.80
2019-04-14T03:08:22.227Z,13.43
2019-04-14T03:08:51.320Z,13.30
2019-04-14T03:09:30.589Z,13.93
2019-04-14T03:11:03.134Z,13.73
2019-04-14T03:11:37.826Z,14.43
2019-04-14T03:12:09.771Z,15.10
2019-04-14T03:12:38.136Z,13.87
2019-04-14T03:13:27.174Z,14.13
2019-04-14T03:14:27.671Z,13.10
2019-04-14T03:14:53.762Z,12.20
2019-04-14T03:15:37.830Z,13.20
2019-04-14T03:17:11.133Z,13.73
2019-04-14T03:18:35.178Z,12.07
2019-04-14T03:19:14.379Z,12.60
2019-04-14T03:20:17.530Z,12.00
2019-04-14T03:21:01.594Z,12.10
2019-04-14T03:21:34.432Z,11.87
2019-04-14T03:22:28.925Z,12.27
2019-04-14T03:22:55.861Z,12.13
2019-04-14T03:24:50.412Z,12.27
2019-04-14T03:25:29.631Z,11.73
2019-04-14T03:26:15.549Z,12.33
2019-04-14T03:26:51.937Z,12.13
2019-04-14T03:27:31.224Z,11.80
2019-04-14T03:27:58.937Z,12.37
2019-04-14T03:29:16.591Z,12.57
2019-04-14T03:29:52.090Z,12.80
2019-04-14T03:30:51.220Z,12.63
2019-04-14T03:31:37.623Z,11.83
2019-04-14T03:32:04.670Z,11.27
2019-04-14T03:32:45.623Z,12.80
2019-04-14T03:33:27.426Z,12.10
2019-04-14T03:33:55.692Z,12.70
2019-04-14T03:35:27.138Z,12.83
2019-04-14T03:36:43.249Z,12.67
2019-04-14T03:37:37.640Z,11.97
2019-04-14T03:37:51.052Z,12.10
2019-04-14T03:38:24.676Z,13.60
2019-04-14T03:39:00.594Z,12.67
2019-04-14T03:39:44.221Z,12.43
2019-04-14T03:40:01.763Z,11.27
2019-04-14T03:41:45.591Z,11.30
2019-04-14T03:42:26.342Z,11.83
2019-04-14T03:42:54.310Z,12.50
2019-04-14T03:43:25.009Z,13.20
2019-04-14T03:43:57.742Z,12.77
2019-04-14T03:45:04.458Z,12.23
2019-04-14T03:45:46.749Z,11.13
2019-04-14T03:46:49.106Z,12.33
2019-04-14T03:47:19.487Z,12.40
2019-04-14T03:48:00.556Z,12.97
2019-04-14T03:48:44.335Z,13.10
2019-04-14T03:49:31.560Z,12.63
2019-04-14T03:50:05.996Z,12.87
2019-04-14T03:50:37.382Z,12.80
2019-04-14T03:51:16.690Z,12.90
2019-04-14T03:51:48.596Z,11.97
2019-04-14T03:52:12.997Z,12.20
2019-04-14T03:52:55.864Z,12.73
2019-04-14T03:54:03.649Z,12.90
2019-04-14T03:54:20.482Z,11.73
2019-04-14T03:54:50.151Z,14.13
2019-04-14T03:55:54.325Z,13.20
2019-04-14T03:56:44.334Z,12.27
2019-04-14T03:57:15.480Z,12.90
2019-04-14T03:57:47.635Z,13.60
2019-04-14T03:58:18.851Z,13.30
2019-04-14T03:58:51.123Z,12.33
2019-04-14T03:59:22.334Z,12.53
2019-04-14T03:59:54.208Z,12.47
2019-04-14T04:00:25.420Z,12.40
2019-04-14T04:00:57.595Z,12.27
2019-04-14T04:01:30.137Z,12.70
2019-04-14T04:02:01.488Z,11.00
2019-04-14T04:02:33.724Z,11.43
2019-04-14T04:03:06.256Z,12.43
2019-04-14T04:03:39.172Z,12.07
2019-04-14T04:04:11.775Z,12.47
2019-04-14T04:04:43.120Z,11.63
2019-04-14T04:05:15.174Z,11.60
2019-04-14T04:05:47.752Z,11.90
2019-04-14T04:06:20.259Z,12.13
2019-04-14T04:06:51.622Z,11.13
2019-04-14T04:07:23.567Z,11.37
2019-04-14T04:07:55.963Z,11.10
2019-04-14T04:08:27.287Z,10.80
2019-04-14T04:08:59.579Z,11.83
2019-04-14T04:09:32.900Z,11.23
2019-04-14T04:10:07.125Z,10.47
2019-04-14T04:10:58.298Z,11.13
2019-04-14T04:11:30.119Z,10.30
2019-04-14T04:12:01.412Z,11.20
2019-04-14T04:12:33.589Z,11.27
2019-04-14T04:13:06.173Z,11.50
2019-04-14T04:13:38.988Z,10.77
2019-04-14T04:14:11.654Z,10.93
2019-04-14T04:14:44.107Z,10.73
2019-04-14T04:15:15.462Z,11.37
2019-04-14T04:15:47.652Z,10.93
2019-04-14T04:16:20.740Z,12.17
2019-04-14T04:17:08.584Z,12.60
2019-04-14T04:17:45.171Z,12.77
2019-04-14T04:18:29.155Z,12.90
2019-04-14T04:19:07.405Z,12.60
2019-04-14T04:19:47.024Z,12.30
2019-04-14T04:20:24.027Z,12.40
2019-04-14T04:21:05.843Z,12.30
2019-04-14T04:21:55.247Z,11.93
2019-04-14T04:22:28.467Z,12.90
2019-04-14T04:23:10.118Z,11.53
2019-04-14T04:23:43.239Z,11.97
2019-04-14T04:24:33.552Z,12.73
2019-04-14T04:25:11.579Z,12.10
2019-04-14T04:25:59.693Z,11.63
2019-04-14T04:26:36.594Z,12.53
2019-04-14T04:27:13.517Z,11.70
2019-04-14T04:27:52.667Z,11.97
2019-04-14T04:28:23.933Z,11.73
2019-04-14T04:28:56.253Z,12.13
2019-04-14T04:29:29.426Z,12.93
2019-04-14T04:30:01.671Z,12.57
2019-04-14T04:30:36.276Z,11.83
2019-04-14T04:31:27.186Z,13.07
2019-04-14T04:32:03.488Z,11.60
2019-04-14T04:32:49.356Z,12.70
2019-04-14T04:33:22.578Z,11.93
2019-04-14T04:33:58.628Z,12.90
2019-04-14T04:34:31.819Z,13.07
2019-04-14T04:35:06.460Z,12.97
2019-04-14T04:35:43.660Z,12.47
2019-04-14T04:36:25.446Z,12.63
2019-04-14T04:37:04.544Z,13.00
2019-04-14T04:37:37.618Z,12.50
2019-04-14T04:38:16.277Z,12.43
2019-04-14T04:38:49.366Z,12.20
2019-04-14T04:39:23.586Z,12.27
2019-04-14T04:39:56.724Z,12.13
2019-04-14T04:40:31.099Z,12.33
2019-04-14T04:41:03.662Z,12.70
2019-04-14T04:41:36.347Z,12.10
2019-04-14T04:42:09.000Z,12.37
2019-04-14T04:42:41.537Z,12.03
2019-04-14T04:43:12.914Z,12.27
2019-04-14T04:43:45.124Z,12.30
2019-04-14T04:44:17.925Z,13.83
2019-04-14T04:44:49.237Z,12.73
2019-04-14T04:45:21.366Z,12.23
2019-04-14T04:45:53.709Z,12.17
2019-04-14T04:46:25.023Z,12.83
2019-04-14T04:46:56.961Z,12.60
2019-04-14T04:47:29.429Z,11.80
2019-04-14T04:48:00.704Z,12.87
2019-04-14T04:48:32.888Z,11.70
2019-04-14T04:49:11.741Z,11.43
2019-04-14T04:49:38.326Z,11.93
2019-04-14T04:50:10.690Z,11.17
2019-04-14T04:50:43.147Z,11.70
2019-04-14T04:51:14.368Z,11.57
2019-04-14T04:51:46.534Z,11.90
2019-04-14T04:52:19.047Z,11.37
2019-04-14T04:52:50.374Z,11.33
2019-04-14T04:53:22.339Z,11.47
2019-04-14T04:53:54.824Z,11.50
2019-04-14T04:54:26.042Z,11.97
2019-04-14T04:54:58.079Z,11.30
2019-04-14T04:55:30.396Z,11.30
2019-04-14T04:56:01.868Z,10.77
2019-04-14T04:56:34.061Z,10.47
2019-04-14T04:57:05.354Z,10.60
2019-04-14T04:57:37.301Z,11.10
2019-04-14T04:58:10.008Z,10.53
2019-04-14T04:58:41.374Z,11.13
2019-04-14T04:59:12.770Z,11.00
2019-04-14T04:59:45.189Z,10.60
2019-04-14T05:00:17.792Z,10.83
2019-04-14T05:00:52.282Z,11.10
2019-04-14T05:01:23.170Z,10.27
2019-04-14T05:01:54.481Z,10.43
2019-04-14T05:02:26.672Z,10.27
2019-04-14T05:02:59.294Z,10.90
2019-04-14T05:03:31.810Z,11.70
2019-04-14T05:04:03.083Z,11.20
2019-04-14T05:04:35.083Z,12.50
2019-04-14T05:06:03.075Z,11.30
2019-04-14T05:06:59.247Z,11.07
2019-04-14T05:07:31.682Z,10.17
2019-04-14T05:08:02.883Z,10.30
2019-04-14T05:08:35.395Z,10.07
2019-04-14T05:09:25.773Z,10.27
2019-04-14T05:10:11.034Z,9.00
2019-04-14T05:10:48.098Z,10.03
2019-04-14T05:11:23.052Z,10.37
2019-04-14T05:12:13.689Z,10.23
2019-04-14T05:12:47.862Z,9.30
2019-04-14T05:13:20.604Z,10.37
2019-04-14T05:13:53.834Z,10.53
2019-04-14T05:14:26.916Z,10.50
2019-04-14T05:14:58.836Z,10.00
2019-04-14T05:15:32.037Z,11.03
2019-04-14T05:16:04.209Z,10.37
2019-04-14T05:16:35.410Z,10.17
2019-04-14T05:17:07.927Z,10.27
2019-04-14T05:17:43.681Z,10.70
2019-04-14T05:18:16.092Z,10.43
2019-04-14T05:18:47.240Z,10.50
2019-04-14T05:19:25.705Z,11.17
2019-04-14T05:19:51.931Z,10.97
2019-04-14T05:20:23.264Z,10.97
2019-04-14T05:20:55.417Z,10.87
2019-04-14T05:21:27.761Z,10.63
2019-04-14T05:21:58.965Z,11.33
2019-04-14T05:22:31.064Z,10.67
2019-04-14T05:23:03.649Z,10.60
2019-04-14T05:23:34.975Z,9.90
2019-04-14T05:24:07.105Z,10.13
2019-04-14T05:24:39.650Z,10.07
2019-04-14T05:25:10.977Z,10.57
2019-04-14T05:25:43.033Z,10.20
2019-04-14T05:26:15.490Z,10.53
2019-04-14T05:26:46.808Z,10.13
2019-04-14T05:27:18.909Z,10.60
2019-04-14T05:27:50.191Z,10.63
2019-04-14T05:28:22.073Z,10.50
2019-04-14T05:28:53.381Z,10.83
2019-04-14T05:29:25.366Z,9.77
2019-04-14T05:29:57.944Z,10.27
2019-04-14T05:30:29.297Z,10.00
2019-04-14T05:31:01.272Z,10.93
2019-04-14T05:31:33.642Z,10.23
2019-04-14T05:32:05.017Z,10.63
2019-04-14T05:32:36.929Z,10.47
2019-04-14T05:33:09.506Z,10.30
2019-04-14T05:33:40.771Z,9.70
2019-04-14T05:34:12.915Z,9.70
2019-04-14T05:34:45.326Z,9.97
2019-04-14T05:35:17.030Z,10.07
2019-04-14T05:35:48.842Z,9.33
2019-04-14T05:36:21.417Z,10.30
2019-04-14T05:36:52.814Z,10.70
2019-04-14T05:37:24.732Z,10.33
2019-04-14T05:37:57.217Z,10.80
2019-04-14T05:38:31.843Z,10.57
2019-04-14T05:39:02.553Z,9.50
2019-04-14T05:39:35.451Z,10.13
2019-04-14T05:40:07.984Z,9.40
2019-04-14T05:40:40.718Z,9.43
2019-04-14T05:41:12.164Z,9.60
2019-04-14T05:41:54.945Z,9.27
2019-04-14T05:42:20.195Z,10.10
2019-04-14T05:42:51.613Z,9.70
2019-04-14T05:43:30.262Z,9.53
2019-04-14T05:43:59.719Z,9.47
2019-04-14T05:44:29.667Z,9.63
2019-04-14T05:45:02.323Z,10.30
2019-04-14T05:45:35.047Z,9.90
2019-04-14T05:46:07.642Z,10.00
2019-04-14T05:46:38.972Z,10.33
2019-04-14T05:47:11.129Z,9.73
2019-04-14T05:47:43.565Z,10.27
2019-04-14T05:48:15.996Z,10.17
2019-04-14T05:48:47.296Z,10.30
2019-04-14T05:49:28.607Z,9.97
2019-04-14T05:49:54.662Z,9.40
2019-04-14T05:50:24.976Z,9.37
2019-04-14T05:50:56.221Z,8.53
2019-04-14T05:51:28.400Z,9.43
2019-04-14T05:51:59.611Z,9.17
2019-04-14T05:52:31.812Z,8.27
2019-04-14T05:53:04.271Z,8.93
2019-04-14T05:53:35.636Z,8.70
2019-04-14T05:54:07.827Z,8.63
2019-04-14T05:54:40.333Z,9.00
2019-04-14T05:55:11.657Z,7.73
2019-04-14T05:55:43.837Z,7.53
2019-04-14T05:56:16.356Z,8.67
2019-04-14T05:56:47.716Z,9.03
2019-04-14T05:57:19.857Z,9.77
2019-04-14T05:57:52.381Z,10.30
2019-04-14T05:58:23.673Z,11.17
2019-04-14T05:58:55.770Z,10.87
2019-04-14T05:59:26.994Z,9.60
2019-04-14T05:59:59.390Z,9.40
2019-04-14T06:00:31.977Z,8.63
2019-04-14T06:01:03.306Z,8.67
2019-04-14T06:01:34.492Z,8.50
2019-04-14T06:02:05.705Z,8.50
2019-04-14T06:02:37.708Z,8.27
2019-04-14T06:03:10.184Z,8.27
2019-04-14T06:03:41.582Z,8.07
2019-04-14T06:04:13.613Z,7.83
2019-04-14T06:04:46.033Z,8.00
2019-04-14T06:05:17.343Z,8.00
2019-04-14T06:05:48.516Z,8.03
2019-04-14T06:06:19.742Z,7.60
2019-04-14T06:06:50.954Z,7.47
2019-04-14T06:07:22.188Z,7.97
2019-04-14T06:07:55.416Z,7.57
2019-04-14T06:08:26.511Z,7.87
2019-04-14T06:08:57.671Z,7.63
2019-04-14T06:09:29.024Z,7.63
2019-04-14T06:10:00.185Z,8.53
2019-04-14T06:10:32.824Z,8.13
2019-04-14T06:11:03.988Z,8.40
2019-04-14T06:11:35.221Z,7.90
2019-04-14T06:12:06.406Z,7.80
2019-04-14T06:12:38.180Z,9.13
2019-04-14T06:13:11.710Z,13.13
2019-04-14T06:13:42.596Z,14.27
2019-04-14T06:14:14.855Z,14.87
2019-04-14T06:14:46.128Z,13.40
2019-04-14T06:15:17.308Z,13.80
2019-04-14T06:15:48.502Z,11.80
2019-04-14T06:16:19.695Z,14.10
2019-04-14T06:16:50.915Z,13.57
2019-04-14T06:17:22.112Z,13.60
2019-04-14T06:17:53.339Z,13.57
2019-04-14T06:18:24.517Z,11.20
2019-04-14T06:18:55.731Z,11.30
2019-04-14T06:19:36.446Z,12.60
2019-04-14T06:20:00.023Z,13.47
2019-04-14T06:20:31.921Z,14.80
2019-04-14T06:21:03.228Z,13.73
2019-04-14T06:21:35.415Z,10.17
2019-04-14T06:22:06.610Z,10.90
2019-04-14T06:22:37.882Z,12.90
2019-04-14T06:23:09.144Z,15.00
2019-04-14T06:23:40.630Z,17.67
2019-04-14T06:24:11.898Z,16.73
2019-04-14T06:24:43.177Z,13.03
2019-04-14T06:25:14.437Z,11.27
2019-04-14T06:25:45.696Z,10.47
2019-04-14T06:26:16.954Z,10.50
2019-04-14T06:26:48.234Z,13.10
2019-04-14T06:27:19.472Z,15.73
2019-04-14T06:27:50.638Z,14.27
2019-04-14T06:28:21.858Z,15.93
2019-04-14T06:28:53.039Z,18.00
2019-04-14T06:29:24.266Z,14.23
2019-04-14T06:29:57.314Z,12.73
2019-04-14T06:30:40.563Z,16.97
2019-04-14T06:31:13.680Z,16.20
2019-04-14T06:31:59.690Z,15.53
2019-04-14T06:32:32.804Z,23.10
2019-04-14T06:33:23.863Z,25.07
2019-04-14T06:34:07.030Z,23.97
2019-04-14T06:34:40.403Z,19.33
2019-04-14T06:35:16.506Z,18.40
2019-04-14T06:36:07.652Z,14.47
2019-04-14T06:36:55.535Z,13.63
2019-04-14T06:37:34.366Z,12.80
2019-04-14T06:38:07.599Z,14.90
2019-04-14T06:38:57.103Z,11.83
2019-04-14T06:39:45.289Z,12.47
2019-04-14T06:40:16.451Z,15.60
2019-04-14T06:40:49.587Z,16.43
2019-04-14T06:41:20.744Z,12.90
2019-04-14T06:41:51.960Z,14.50
2019-04-14T06:42:24.133Z,14.10
2019-04-14T06:42:55.357Z,13.13
2019-04-14T06:43:26.551Z,13.03
2019-04-14T06:43:57.823Z,12.53
2019-04-14T06:44:29.101Z,13.50
2019-04-14T06:45:01.349Z,11.27
2019-04-14T06:45:32.535Z,10.67
2019-04-14T06:46:03.740Z,11.40
2019-04-14T06:46:34.943Z,9.23
2019-04-14T06:47:06.145Z,9.70
2019-04-14T06:47:37.662Z,8.87
2019-04-14T06:48:08.874Z,9.80
2019-04-14T06:48:40.054Z,11.03
2019-04-14T06:49:11.314Z,9.00
2019-04-14T06:49:48.770Z,9.30
2019-04-14T06:50:15.715Z,10.23
2019-04-14T06:50:46.984Z,9.53
2019-04-14T06:51:18.259Z,9.10
2019-04-14T06:51:49.517Z,9.40
2019-04-14T06:52:20.789Z,9.73
2019-04-14T06:52:52.036Z,9.60
2019-04-14T06:53:23.283Z,9.13
2019-04-14T06:53:54.491Z,8.90
2019-04-14T06:54:25.762Z,9.50
2019-04-14T06:54:57.023Z,9.30
2019-04-14T06:55:31.355Z,9.73
2019-04-14T06:56:02.949Z,9.00
2019-04-14T06:56:34.214Z,7.40
2019-04-14T06:57:05.526Z,8.00
2019-04-14T06:57:36.798Z,7.67
2019-04-14T06:58:08.441Z,8.87
2019-04-14T06:58:39.682Z,9.13
2019-04-14T06:59:10.875Z,11.80
2019-04-14T06:59:42.119Z,9.90
2019-04-14T07:00:13.405Z,8.33
2019-04-14T07:00:44.675Z,7.73
2019-04-14T07:01:15.952Z,7.80
2019-04-14T07:01:47.207Z,7.43
2019-04-14T07:02:18.490Z,8.33
2019-04-14T07:02:49.766Z,8.83
2019-04-14T07:03:21.100Z,8.97
2019-04-14T07:03:52.333Z,8.20
2019-04-14T07:04:23.494Z,9.03
2019-04-14T07:04:54.731Z,9.67
2019-04-14T07:05:25.887Z,8.90
2019-04-14T07:05:57.141Z,8.40
2019-04-14T07:06:28.301Z,7.63
2019-04-14T07:06:59.530Z,6.57
2019-04-14T07:07:30.701Z,6.87
2019-04-14T07:08:01.921Z,6.17
2019-04-14T07:08:33.075Z,7.30
2019-04-14T07:09:05.415Z,7.90
2019-04-14T07:09:36.776Z,7.23
2019-04-14T07:10:08.292Z,7.03
2019-04-14T07:10:39.450Z,7.33
2019-04-14T07:11:10.921Z,8.30
2019-04-14T07:11:42.089Z,8.60
2019-04-14T07:12:13.384Z,9.23
2019-04-14T07:12:44.618Z,8.23
2019-04-14T07:13:15.843Z,8.40
2019-04-14T07:13:48.217Z,9.03
2019-04-14T07:14:19.595Z,9.23
2019-04-14T07:14:50.753Z,8.20
2019-04-14T07:15:21.986Z,9.00
2019-04-14T07:15:53.146Z,9.87
2019-04-14T07:16:24.343Z,11.43
2019-04-14T07:16:55.555Z,11.50
2019-04-14T07:17:27.722Z,12.70
2019-04-14T07:17:58.888Z,11.70
2019-04-14T07:18:30.091Z,9.47
2019-04-14T07:19:01.287Z,8.43
2019-04-14T07:19:32.477Z,11.30
2019-04-14T07:20:05.010Z,14.57
2019-04-14T07:20:36.169Z,32.27
2019-04-14T07:21:07.748Z,16.73
2019-04-14T07:21:38.921Z,16.03
2019-04-14T07:22:11.386Z,9.80
2019-04-14T07:22:42.641Z,7.83
2019-04-14T07:23:13.952Z,8.33
2019-04-14T07:23:47.237Z,10.53
2019-04-14T07:24:18.381Z,11.63
2019-04-14T07:24:49.548Z,14.23
2019-04-14T07:25:20.795Z,11.40
2019-04-14T07:25:51.985Z,9.93
2019-04-14T07:26:23.201Z,7.33
2019-04-14T07:26:54.376Z,6.53
2019-04-14T07:27:25.633Z,6.23
2019-04-14T07:27:56.806Z,7.07
2019-04-14T07:28:28.039Z,7.93
2019-04-14T07:28:59.243Z,7.63
2019-04-14T07:29:32.381Z,7.23
2019-04-14T07:30:22.191Z,7.37
2019-04-14T07:30:58.006Z,7.13
2019-04-14T07:31:40.029Z,7.27
2019-04-14T07:32:13.220Z,7.07
2019-04-14T07:32:47.013Z,7.40
2019-04-14T07:33:26.048Z,6.23
2019-04-14T07:34:07.904Z,7.97
2019-04-14T07:34:43.762Z,7.33
2019-04-14T07:35:33.058Z,7.60
2019-04-14T07:36:06.182Z,8.07
2019-04-14T07:36:51.914Z,9.37
2019-04-14T07:37:34.968Z,8.60